sensor_id;sensor_type;location;lat;lon;timestamp;pressure;altitude;pressure_sealevel;temperature;humidity
14343;BME280;7255;53.596;9.960;2023-02-23T00:00:12;100863.41;;;7.96;nan
14343;BME280;7255;53.596;9.960;2023-02-23T00:02:47;100856.84;;;7.92;nan
14343;BME280;7255;53.596;9.960;2023-02-23T00:05:14;100853.94;;;7.87;nan
14343;BME280;7255;53.596;9.960;2023-02-23T00:07:41;100846.94;;;7.86;nan
14343;BME280;7255;53.596;9.960;2023-02-23T00:10:10;100844.06;;;7.81;nan
14343;BME280;7255;53.596;9.960;2023-02-23T00:12:37;100851.03;;;7.82;nan
14343;BME280;7255;53.596;9.960;2023-02-23T00:15:03;100838.72;;;7.81;nan
14343;BME280;7255;53.596;9.960;2023-02-23T00:17:31;100845.28;;;7.71;nan
14343;BME280;7255;53.596;9.960;2023-02-23T00:20:02;100824.28;;;7.68;nan
14343;BME280;7255;53.596;9.960;2023-02-23T00:22:35;100838.69;;;7.67;nan
14343;BME280;7255;53.596;9.960;2023-02-23T00:25:02;100844.41;;;7.58;nan
14343;BME280;7255;53.596;9.960;2023-02-23T00:27:32;100837.84;;;7.60;nan
14343;BME280;7255;53.596;9.960;2023-02-23T00:29:58;100836.63;;;7.63;nan
14343;BME280;7255;53.596;9.960;2023-02-23T00:32:24;100839.88;;;7.58;nan
14343;BME280;7255;53.596;9.960;2023-02-23T00:34:51;100841.53;;;7.59;nan
14343;BME280;7255;53.596;9.960;2023-02-23T00:37:19;100836.59;;;7.56;nan
14343;BME280;7255;53.596;9.960;2023-02-23T00:39:47;100839.88;;;7.51;nan
14343;BME280;7255;53.596;9.960;2023-02-23T00:42:13;100841.94;;;7.56;nan
14343;BME280;7255;53.596;9.960;2023-02-23T00:44:40;100835.75;;;7.49;nan
14343;BME280;7255;53.596;9.960;2023-02-23T00:47:06;100838.25;;;7.57;nan
14343;BME280;7255;53.596;9.960;2023-02-23T00:49:33;100840.31;;;7.55;nan
14343;BME280;7255;53.596;9.960;2023-02-23T00:51:59;100846.03;;;7.52;nan
14343;BME280;7255;53.596;9.960;2023-02-23T00:54:27;100852.22;;;7.46;nan
14343;BME280;7255;53.596;9.960;2023-02-23T00:56:53;100839.06;;;7.51;nan
14343;BME280;7255;53.596;9.960;2023-02-23T00:59:19;100839.06;;;7.51;nan
14343;BME280;7255;53.596;9.960;2023-02-23T01:01:46;100851.41;;;7.52;nan
14343;BME280;7255;53.596;9.960;2023-02-23T01:04:13;100841.94;;;7.49;nan
14343;BME280;7255;53.596;9.960;2023-02-23T01:06:41;100840.28;;;7.48;nan
14343;BME280;7255;53.596;9.960;2023-02-23T01:09:10;100840.69;;;7.52;nan
14343;BME280;7255;53.596;9.960;2023-02-23T01:11:39;100842.34;;;7.60;nan
14343;BME280;7255;53.596;9.960;2023-02-23T01:14:06;100838.25;;;7.57;nan
14343;BME280;7255;53.596;9.960;2023-02-23T01:16:33;100846.50;;;7.62;nan
14343;BME280;7255;53.596;9.960;2023-02-23T01:19:03;100842.34;;;7.60;nan
14343;BME280;7255;53.596;9.960;2023-02-23T01:21:31;100847.28;;;7.56;nan
14343;BME280;7255;53.596;9.960;2023-02-23T01:23:58;100832.50;;;7.60;nan
14343;BME280;7255;53.596;9.960;2023-02-23T01:26:28;100803.72;;;7.62;nan
14343;BME280;7255;53.596;9.960;2023-02-23T01:28:57;100849.78;;;7.64;nan
14343;BME280;7255;53.596;9.960;2023-02-23T01:31:25;100846.91;;;7.66;nan
14343;BME280;7255;53.596;9.960;2023-02-23T01:33:52;100846.06;;;7.65;nan
14343;BME280;7255;53.596;9.960;2023-02-23T01:36:19;100848.56;;;7.60;nan
14343;BME280;7255;53.596;9.960;2023-02-23T01:38:46;100841.94;;;7.56;nan
14343;BME280;7255;53.596;9.960;2023-02-23T01:41:13;100841.53;;;7.59;nan
14343;BME280;7255;53.596;9.960;2023-02-23T01:43:54;100840.31;;;7.55;nan
14343;BME280;7255;53.596;9.960;2023-02-23T01:46:22;100846.47;;;7.56;nan
14343;BME280;7255;53.596;9.960;2023-02-23T01:48:48;100847.69;;;7.53;nan
14343;BME280;7255;53.596;9.960;2023-02-23T01:51:18;100846.87;;;7.59;nan
14343;BME280;7255;53.596;9.960;2023-02-23T01:53:51;100840.72;;;7.59;nan
14343;BME280;7255;53.596;9.960;2023-02-23T01:56:23;100837.00;;;7.60;nan
14343;BME280;7255;53.596;9.960;2023-02-23T01:58:54;100835.81;;;7.62;nan
14343;BME280;7255;53.596;9.960;2023-02-23T02:01:24;100836.63;;;7.63;nan
14343;BME280;7255;53.596;9.960;2023-02-23T02:03:54;100829.22;;;7.65;nan
14343;BME280;7255;53.596;9.960;2023-02-23T02:06:23;100849.41;;;7.67;nan
14343;BME280;7255;53.596;9.960;2023-02-23T02:08:54;100835.38;;;7.65;nan
14343;BME280;7255;53.596;9.960;2023-02-23T02:11:22;100837.84;;;7.67;nan
14343;BME280;7255;53.596;9.960;2023-02-23T02:13:57;100834.56;;;7.65;nan
14343;BME280;7255;53.596;9.960;2023-02-23T02:16:37;100829.59;;;7.62;nan
14343;BME280;7255;53.596;9.960;2023-02-23T02:19:36;100841.16;;;7.62;nan
14343;BME280;7255;53.596;9.960;2023-02-23T02:22:41;100833.75;;;7.64;nan
14343;BME280;7255;53.596;9.960;2023-02-23T02:25:50;100823.44;;;7.61;nan
14343;BME280;7255;53.596;9.960;2023-02-23T02:28:45;100839.94;;;7.71;nan
14343;BME280;7255;53.596;9.960;2023-02-23T02:31:37;100838.25;;;7.70;nan
14343;BME280;7255;53.596;9.960;2023-02-23T02:35:03;100837.47;;;7.77;nan
14343;BME280;7255;53.596;9.960;2023-02-23T02:37:45;100836.66;;;7.83;nan
14343;BME280;7255;53.596;9.960;2023-02-23T02:40:20;100842.41;;;7.86;nan
14343;BME280;7255;53.596;9.960;2023-02-23T02:43:05;100843.63;;;7.84;nan
14343;BME280;7255;53.596;9.960;2023-02-23T02:45:41;100838.72;;;7.94;nan
14343;BME280;7255;53.596;9.960;2023-02-23T02:48:15;100851.09;;;7.95;nan
14343;BME280;7255;53.596;9.960;2023-02-23T02:50:46;100842.44;;;7.93;nan
14343;BME280;7255;53.596;9.960;2023-02-23T02:53:20;100839.94;;;7.98;nan
14343;BME280;7255;53.596;9.960;2023-02-23T02:55:48;100850.66;;;8.05;nan
14343;BME280;7255;53.596;9.960;2023-02-23T02:58:16;100842.44;;;8.06;nan
14343;BME280;7255;53.596;9.960;2023-02-23T03:00:45;100838.72;;;8.01;nan
14343;BME280;7255;53.596;9.960;2023-02-23T03:03:31;100840.37;;;8.02;nan
14343;BME280;7255;53.596;9.960;2023-02-23T03:06:17;100838.72;;;7.94;nan
14343;BME280;7255;53.596;9.960;2023-02-23T03:09:12;100835.03;;;7.95;nan
14343;BME280;7255;53.596;9.960;2023-02-23T03:12:06;100829.25;;;7.92;nan
14343;BME280;7255;53.596;9.960;2023-02-23T03:14:56;100818.53;;;7.85;nan
14343;BME280;7255;53.596;9.960;2023-02-23T03:17:46;100831.31;;;7.83;nan
14343;BME280;7255;53.596;9.960;2023-02-23T03:20:40;100831.72;;;7.86;nan
14343;BME280;7255;53.596;9.960;2023-02-23T03:23:31;100826.38;;;7.86;nan
14343;BME280;7255;53.596;9.960;2023-02-23T03:26:25;100824.31;;;7.95;nan
14343;BME280;7255;53.596;9.960;2023-02-23T03:29:16;100834.59;;;7.98;nan
14343;BME280;7255;53.596;9.960;2023-02-23T03:32:06;100843.25;;;8.07;nan
14343;BME280;7255;53.596;9.960;2023-02-23T03:34:55;100849.41;;;8.07;nan
14343;BME280;7255;53.596;9.960;2023-02-23T03:37:46;100847.78;;;8.06;nan
14343;BME280;7255;53.596;9.960;2023-02-23T03:40:33;100837.06;;;8.13;nan
14343;BME280;7255;53.596;9.960;2023-02-23T03:43:24;100840.37;;;8.15;nan
14343;BME280;7255;53.596;9.960;2023-02-23T03:46:11;100821.44;;;8.10;nan
14343;BME280;7255;53.596;9.960;2023-02-23T03:49:00;100833.78;;;8.11;nan
14343;BME280;7255;53.596;9.960;2023-02-23T03:51:49;100831.31;;;8.09;nan
14343;BME280;7255;53.596;9.960;2023-02-23T03:54:36;100839.56;;;8.08;nan
14343;BME280;7255;53.596;9.960;2023-02-23T03:57:23;100835.44;;;8.05;nan
14343;BME280;7255;53.596;9.960;2023-02-23T04:00:16;100834.63;;;8.05;nan
14343;BME280;7255;53.596;9.960;2023-02-23T04:03:05;100834.63;;;8.12;nan
14343;BME280;7255;53.596;9.960;2023-02-23T04:05:53;100836.66;;;8.09;nan
14343;BME280;7255;53.596;9.960;2023-02-23T04:08:39;100836.66;;;8.09;nan
14343;BME280;7255;53.596;9.960;2023-02-23T04:11:28;100829.69;;;8.08;nan
14343;BME280;7255;53.596;9.960;2023-02-23T04:14:16;100842.00;;;8.09;nan
14343;BME280;7255;53.596;9.960;2023-02-23T04:16:44;100839.12;;;8.11;nan
14343;BME280;7255;53.596;9.960;2023-02-23T04:19:11;100836.25;;;8.13;nan
14343;BME280;7255;53.596;9.960;2023-02-23T04:21:37;100842.00;;;8.09;nan
14343;BME280;7255;53.596;9.960;2023-02-23T04:24:04;100840.81;;;8.19;nan
14343;BME280;7255;53.596;9.960;2023-02-23T04:26:30;100855.22;;;8.24;nan
14343;BME280;7255;53.596;9.960;2023-02-23T04:28:57;100845.75;;;8.28;nan
14343;BME280;7255;53.596;9.960;2023-02-23T04:31:23;100860.97;;;8.35;nan
14343;BME280;7255;53.596;9.960;2023-02-23T04:33:50;100859.75;;;8.37;nan
14343;BME280;7255;53.596;9.960;2023-02-23T04:36:17;100859.34;;;8.47;nan
14343;BME280;7255;53.596;9.960;2023-02-23T04:38:43;100858.53;;;8.46;nan
14343;BME280;7255;53.596;9.960;2023-02-23T04:41:09;100850.25;;;8.41;nan
14343;BME280;7255;53.596;9.960;2023-02-23T04:43:36;100856.44;;;8.35;nan
14343;BME280;7255;53.596;9.960;2023-02-23T04:46:02;100861.81;;;8.35;nan
14343;BME280;7255;53.596;9.960;2023-02-23T04:48:29;100857.66;;;8.33;nan
14343;BME280;7255;53.596;9.960;2023-02-23T04:50:56;100852.31;;;8.33;nan
14343;BME280;7255;53.596;9.960;2023-02-23T04:53:22;100858.09;;;8.36;nan
14343;BME280;7255;53.596;9.960;2023-02-23T04:55:51;100859.75;;;8.37;nan
14343;BME280;7255;53.596;9.960;2023-02-23T04:58:17;100850.69;;;8.45;nan
14343;BME280;7255;53.596;9.960;2023-02-23T05:00:44;100860.16;;;8.47;nan
14343;BME280;7255;53.596;9.960;2023-02-23T05:03:10;100853.16;;;8.53;nan
14343;BME280;7255;53.596;9.960;2023-02-23T05:05:37;100851.09;;;8.48;nan
14343;BME280;7255;53.596;9.960;2023-02-23T05:08:05;100847.78;;;8.53;nan
14343;BME280;7255;53.596;9.960;2023-02-23T05:10:31;100841.63;;;8.59;nan
14343;BME280;7255;53.596;9.960;2023-02-23T05:12:58;100861.78;;;8.69;nan
14343;BME280;7255;53.596;9.960;2023-02-23T05:15:25;100858.50;;;8.66;nan
14343;BME280;7255;53.596;9.960;2023-02-23T05:17:53;100861.34;;;8.72;nan
14343;BME280;7255;53.596;9.960;2023-02-23T05:20:20;100857.66;;;8.79;nan
14343;BME280;7255;53.596;9.960;2023-02-23T05:22:46;100856.03;;;8.65;nan
14343;BME280;7255;53.596;9.960;2023-02-23T05:25:14;100878.28;;;8.72;nan
14343;BME280;7255;53.596;9.960;2023-02-23T05:27:40;100868.38;;;8.66;nan
14343;BME280;7255;53.596;9.960;2023-02-23T05:30:08;100878.28;;;8.72;nan
14343;BME280;7255;53.596;9.960;2023-02-23T05:32:34;100872.91;;;8.72;nan
14343;BME280;7255;53.596;9.960;2023-02-23T05:35:01;100868.84;;;8.43;nan
14343;BME280;7255;53.596;9.960;2023-02-23T05:37:28;100862.62;;;8.56;nan
14343;BME280;7255;53.596;9.960;2023-02-23T05:39:54;100866.31;;;8.68;nan
14343;BME280;7255;53.596;9.960;2023-02-23T05:42:21;100870.41;;;8.84;nan
14343;BME280;7255;53.596;9.960;2023-02-23T05:44:48;100873.28;;;8.82;nan
14343;BME280;7255;53.596;9.960;2023-02-23T05:47:14;100865.47;;;8.88;nan
14343;BME280;7255;53.596;9.960;2023-02-23T05:49:40;100877.03;;;8.81;nan
14343;BME280;7255;53.596;9.960;2023-02-23T05:52:07;100879.50;;;8.83;nan
14343;BME280;7255;53.596;9.960;2023-02-23T05:54:33;100874.97;;;8.83;nan
14343;BME280;7255;53.596;9.960;2023-02-23T05:56:59;100871.66;;;8.68;nan
14343;BME280;7255;53.596;9.960;2023-02-23T05:59:27;100875.00;;;8.70;nan
14343;BME280;7255;53.596;9.960;2023-02-23T06:01:53;100876.63;;;8.71;nan
14343;BME280;7255;53.596;9.960;2023-02-23T06:04:20;100885.25;;;8.73;nan
14343;BME280;7255;53.596;9.960;2023-02-23T06:06:47;100909.59;;;8.65;nan
14343;BME280;7255;53.596;9.960;2023-02-23T06:09:14;100910.00;;;8.69;nan
14343;BME280;7255;53.596;9.960;2023-02-23T06:11:40;100895.97;;;8.73;nan
14343;BME280;7255;53.596;9.960;2023-02-23T06:14:06;100905.06;;;8.65;nan
14343;BME280;7255;53.596;9.960;2023-02-23T06:16:34;100914.53;;;8.68;nan
14343;BME280;7255;53.596;9.960;2023-02-23T06:19:00;100921.13;;;8.65;nan
14343;BME280;7255;53.596;9.960;2023-02-23T06:21:26;100919.47;;;8.71;nan
14343;BME280;7255;53.596;9.960;2023-02-23T06:23:53;100921.13;;;8.72;nan
14343;BME280;7255;53.596;9.960;2023-02-23T06:26:19;100912.50;;;8.70;nan
14343;BME280;7255;53.596;9.960;2023-02-23T06:28:45;100925.66;;;8.72;nan
14343;BME280;7255;53.596;9.960;2023-02-23T06:31:12;100915.34;;;8.82;nan
14343;BME280;7255;53.596;9.960;2023-02-23T06:33:40;100921.13;;;8.85;nan
14343;BME280;7255;53.596;9.960;2023-02-23T06:36:06;100928.50;;;8.90;nan
14343;BME280;7255;53.596;9.960;2023-02-23T06:38:34;100931.03;;;8.65;nan
14343;BME280;7255;53.596;9.960;2023-02-23T06:41:05;100926.47;;;8.59;nan
14343;BME280;7255;53.596;9.960;2023-02-23T06:43:32;100932.69;;;8.59;nan
14343;BME280;7255;53.596;9.960;2023-02-23T06:45:58;100934.72;;;8.64;nan
14343;BME280;7255;53.596;9.960;2023-02-23T06:48:24;100940.91;;;8.71;nan
14343;BME280;7255;53.596;9.960;2023-02-23T06:50:52;100935.16;;;8.74;nan
14343;BME280;7255;53.596;9.960;2023-02-23T06:53:18;100942.56;;;8.52;nan
14343;BME280;7255;53.596;9.960;2023-02-23T06:55:46;100941.72;;;8.52;nan
14343;BME280;7255;53.596;9.960;2023-02-23T06:58:12;100948.72;;;8.39;nan
14343;BME280;7255;53.596;9.960;2023-02-23T07:00:38;100939.66;;;8.34;nan
14343;BME280;7255;53.596;9.960;2023-02-23T07:03:07;100937.56;;;8.29;nan
14343;BME280;7255;53.596;9.960;2023-02-23T07:05:33;100933.47;;;8.26;nan
14343;BME280;7255;53.596;9.960;2023-02-23T07:08:01;100942.50;;;8.19;nan
14343;BME280;7255;53.596;9.960;2023-02-23T07:10:28;100940.44;;;8.21;nan
14343;BME280;7255;53.596;9.960;2023-02-23T07:12:54;100944.53;;;8.17;nan
14343;BME280;7255;53.596;9.960;2023-02-23T07:15:21;100942.50;;;8.25;nan
14343;BME280;7255;53.596;9.960;2023-02-23T07:17:47;100955.28;;;8.30;nan
14343;BME280;7255;53.596;9.960;2023-02-23T07:20:15;100947.03;;;8.18;nan
14343;BME280;7255;53.596;9.960;2023-02-23T07:22:42;100955.25;;;8.17;nan
14343;BME280;7255;53.596;9.960;2023-02-23T07:25:10;100963.09;;;8.12;nan
14343;BME280;7255;53.596;9.960;2023-02-23T07:27:36;100950.31;;;8.14;nan
14343;BME280;7255;53.596;9.960;2023-02-23T07:30:03;100943.31;;;8.13;nan
14343;BME280;7255;53.596;9.960;2023-02-23T07:32:30;100950.72;;;8.24;nan
14343;BME280;7255;53.596;9.960;2023-02-23T07:34:56;100962.69;;;8.35;nan
14343;BME280;7255;53.596;9.960;2023-02-23T07:37:22;100963.13;;;8.32;nan
14343;BME280;7255;53.596;9.960;2023-02-23T07:39:49;100967.66;;;8.38;nan
14343;BME280;7255;53.596;9.960;2023-02-23T07:42:16;100965.16;;;8.29;nan
14343;BME280;7255;53.596;9.960;2023-02-23T07:44:43;100968.47;;;8.25;nan
14343;BME280;7255;53.596;9.960;2023-02-23T07:47:10;100962.25;;;8.18;nan
14343;BME280;7255;53.596;9.960;2023-02-23T07:49:36;100963.09;;;8.12;nan
14343;BME280;7255;53.596;9.960;2023-02-23T07:52:03;100971.72;;;8.14;nan
14343;BME280;7255;53.596;9.960;2023-02-23T07:54:29;100970.50;;;8.23;nan
14343;BME280;7255;53.596;9.960;2023-02-23T07:56:56;100982.84;;;8.24;nan
14343;BME280;7255;53.596;9.960;2023-02-23T07:59:24;100979.16;;;8.12;nan
14343;BME280;7255;53.596;9.960;2023-02-23T08:01:51;100981.63;;;8.20;nan
14343;BME280;7255;53.596;9.960;2023-02-23T08:04:17;100996.84;;;8.06;nan
14343;BME280;7255;53.596;9.960;2023-02-23T08:06:44;100996.78;;;7.93;nan
14343;BME280;7255;53.596;9.960;2023-02-23T08:09:10;100998.44;;;8.00;nan
14343;BME280;7255;53.596;9.960;2023-02-23T08:11:37;101002.13;;;7.93;nan
14343;BME280;7255;53.596;9.960;2023-02-23T08:14:03;101004.62;;;8.01;nan
14343;BME280;7255;53.596;9.960;2023-02-23T08:16:32;101021.97;;;8.18;nan
14343;BME280;7255;53.596;9.960;2023-02-23T08:18:59;101020.34;;;8.24;nan
14343;BME280;7255;53.596;9.960;2023-02-23T08:21:26;101008.41;;;8.26;nan
14343;BME280;7255;53.596;9.960;2023-02-23T08:23:53;100996.03;;;8.25;nan
14343;BME280;7255;53.596;9.960;2023-02-23T08:26:20;100999.28;;;8.07;nan
14343;BME280;7255;53.596;9.960;2023-02-23T08:28:46;100995.12;;;7.98;nan
14343;BME280;7255;53.596;9.960;2023-02-23T08:31:13;101012.47;;;8.02;nan
14343;BME280;7255;53.596;9.960;2023-02-23T08:33:41;101004.22;;;8.04;nan
14343;BME280;7255;53.596;9.960;2023-02-23T08:36:08;101008.31;;;8.00;nan
14343;BME280;7255;53.596;9.960;2023-02-23T08:38:35;101015.28;;;7.87;nan
14343;BME280;7255;53.596;9.960;2023-02-23T08:41:02;101019.03;;;7.93;nan
14343;BME280;7255;53.596;9.960;2023-02-23T08:43:28;101017.81;;;8.02;nan
14343;BME280;7255;53.596;9.960;2023-02-23T08:45:55;101020.69;;;8.07;nan
14343;BME280;7255;53.596;9.960;2023-02-23T08:48:21;101021.97;;;8.12;nan
14343;BME280;7255;53.596;9.960;2023-02-23T08:50:50;101025.66;;;8.10;nan
14343;BME280;7255;53.596;9.960;2023-02-23T08:53:20;101029.72;;;8.00;nan
14343;BME280;7255;53.596;9.960;2023-02-23T08:55:47;101025.19;;;8.00;nan
14343;BME280;7255;53.596;9.960;2023-02-23T08:58:13;101030.16;;;8.03;nan
14343;BME280;7255;53.596;9.960;2023-02-23T09:00:39;101029.34;;;8.09;nan
14343;BME280;7255;53.596;9.960;2023-02-23T09:03:05;101018.41;;;7.98;nan
14343;BME280;7255;53.596;9.960;2023-02-23T09:05:35;101010.34;;;7.91;nan
14343;BME280;7255;53.596;9.960;2023-02-23T09:08:03;101000.41;;;7.78;nan
14343;BME280;7255;53.596;9.960;2023-02-23T09:10:31;100991.00;;;7.89;nan
14343;BME280;7255;53.596;9.960;2023-02-23T09:12:57;100989.28;;;7.75;nan
14343;BME280;7255;53.596;9.960;2023-02-23T09:15:24;100988.91;;;7.78;nan
14343;BME280;7255;53.596;9.960;2023-02-23T09:17:50;100976.97;;;7.74;nan
14343;BME280;7255;53.596;9.960;2023-02-23T09:20:16;100986.00;;;7.72;nan
14343;BME280;7255;53.596;9.960;2023-02-23T09:22:43;100995.50;;;7.82;nan
14343;BME280;7255;53.596;9.960;2023-02-23T09:25:14;101015.31;;;7.94;nan
14343;BME280;7255;53.596;9.960;2023-02-23T09:27:43;100995.56;;;7.95;nan
14343;BME280;7255;53.596;9.960;2023-02-23T09:30:10;100993.44;;;7.84;nan
14343;BME280;7255;53.596;9.960;2023-02-23T09:32:42;100993.81;;;7.67;nan
14343;BME280;7255;53.596;9.960;2023-02-23T09:35:09;101006.47;;;7.52;nan
14343;BME280;7255;53.596;9.960;2023-02-23T09:37:35;100999.94;;;7.61;nan
14343;BME280;7255;53.596;9.960;2023-02-23T09:40:02;101002.84;;;7.66;nan
14343;BME280;7255;53.596;9.960;2023-02-23T09:42:36;100998.72;;;7.64;nan
14343;BME280;7255;53.596;9.960;2023-02-23T09:45:14;100992.94;;;7.60;nan
14343;BME280;7255;53.596;9.960;2023-02-23T09:47:50;100986.22;;;7.36;nan
14343;BME280;7255;53.596;9.960;2023-02-23T09:50:21;100998.97;;;7.34;nan
14343;BME280;7255;53.596;9.960;2023-02-23T09:52:52;100993.91;;;7.18;nan
14343;BME280;7255;53.596;9.960;2023-02-23T09:55:24;101007.47;;;7.16;nan
14343;BME280;7255;53.596;9.960;2023-02-23T09:57:56;100998.06;;;7.20;nan
14343;BME280;7255;53.596;9.960;2023-02-23T10:00:25;101019.53;;;7.33;nan
14343;BME280;7255;53.596;9.960;2023-02-23T10:03:07;101046.75;;;7.44;nan
14343;BME280;7255;53.596;9.960;2023-02-23T10:05:39;101026.59;;;7.48;nan
14343;BME280;7255;53.596;9.960;2023-02-23T10:08:15;101025.38;;;7.50;nan
14343;BME280;7255;53.596;9.960;2023-02-23T10:10:47;101024.63;;;7.63;nan
14343;BME280;7255;53.596;9.960;2023-02-23T10:13:20;101013.53;;;7.66;nan
14343;BME280;7255;53.596;9.960;2023-02-23T10:15:51;101026.31;;;7.71;nan
14343;BME280;7255;53.596;9.960;2023-02-23T10:18:26;101015.59;;;7.64;nan
14343;BME280;7255;53.596;9.960;2023-02-23T10:20:59;101069.00;;;7.51;nan
14343;BME280;7255;53.596;9.960;2023-02-23T10:23:30;101045.16;;;7.56;nan
14343;BME280;7255;53.596;9.960;2023-02-23T10:25:59;101040.66;;;7.57;nan
14343;BME280;7255;53.596;9.960;2023-02-23T10:28:33;101057.59;;;7.70;nan
14343;BME280;7255;53.596;9.960;2023-02-23T10:30:59;101015.59;;;7.64;nan
14343;BME280;7255;53.596;9.960;2023-02-23T10:33:32;101035.75;;;7.67;nan
14343;BME280;7255;53.596;9.960;2023-02-23T10:36:09;101039.53;;;7.79;nan
14343;BME280;7255;53.596;9.960;2023-02-23T10:38:38;101049.75;;;7.69;nan
14343;BME280;7255;53.596;9.960;2023-02-23T10:41:04;101038.62;;;7.65;nan
14343;BME280;7255;53.596;9.960;2023-02-23T10:43:32;101052.66;;;7.67;nan
14343;BME280;7255;53.596;9.960;2023-02-23T10:45:59;101053.81;;;7.58;nan
14343;BME280;7255;53.596;9.960;2023-02-23T10:48:28;101051.38;;;7.63;nan
14343;BME280;7255;53.596;9.960;2023-02-23T10:50:56;101062.88;;;7.57;nan
14343;BME280;7255;53.596;9.960;2023-02-23T10:53:30;101057.13;;;7.60;nan
14343;BME280;7255;53.596;9.960;2023-02-23T10:56:02;101063.31;;;7.61;nan
14343;BME280;7255;53.596;9.960;2023-02-23T10:58:32;101057.53;;;7.57;nan
14343;BME280;7255;53.596;9.960;2023-02-23T11:01:06;101055.56;;;7.16;nan
14343;BME280;7255;53.596;9.960;2023-02-23T11:03:35;101065.59;;;7.36;nan
14343;BME280;7255;53.596;9.960;2023-02-23T11:06:03;101063.13;;;7.34;nan
14343;BME280;7255;53.596;9.960;2023-02-23T11:08:31;101062.22;;;7.20;nan
14343;BME280;7255;53.596;9.960;2023-02-23T11:11:05;101053.28;;;7.35;nan
14343;BME280;7255;53.596;9.960;2023-02-23T11:13:35;101055.09;;;7.62;nan
14343;BME280;7255;53.596;9.960;2023-02-23T11:16:05;101034.56;;;7.69;nan
14343;BME280;7255;53.596;9.960;2023-02-23T11:18:34;101046.06;;;7.70;nan
14343;BME280;7255;53.596;9.960;2023-02-23T11:21:01;101049.06;;;7.95;nan
14343;BME280;7255;53.596;9.960;2023-02-23T11:23:29;101046.69;;;8.14;nan
14343;BME280;7255;53.596;9.960;2023-02-23T11:25:59;101040.53;;;8.26;nan
14343;BME280;7255;53.596;9.960;2023-02-23T11:28:29;101039.31;;;8.36;nan
14343;BME280;7255;53.596;9.960;2023-02-23T11:31:00;101040.13;;;8.23;nan
14343;BME280;7255;53.596;9.960;2023-02-23T11:33:31;101045.03;;;8.26;nan
14343;BME280;7255;53.596;9.960;2023-02-23T11:36:13;101038.09;;;8.38;nan
14343;BME280;7255;53.596;9.960;2023-02-23T11:38:40;101049.28;;;8.48;nan
14343;BME280;7255;53.596;9.960;2023-02-23T11:41:17;101042.69;;;8.58;nan
14343;BME280;7255;53.596;9.960;2023-02-23T11:43:47;101038.91;;;8.32;nan
14343;BME280;7255;53.596;9.960;2023-02-23T11:46:13;101039.34;;;8.42;nan
14343;BME280;7255;53.596;9.960;2023-02-23T11:48:45;101035.25;;;8.53;nan
14343;BME280;7255;53.596;9.960;2023-02-23T11:51:22;101032.78;;;8.52;nan
14343;BME280;7255;53.596;9.960;2023-02-23T11:53:49;101045.16;;;8.66;nan
14343;BME280;7255;53.596;9.960;2023-02-23T11:56:18;101045.59;;;8.63;nan
14343;BME280;7255;53.596;9.960;2023-02-23T11:58:48;101042.31;;;8.61;nan
14343;BME280;7255;53.596;9.960;2023-02-23T12:01:17;101038.16;;;8.72;nan
14343;BME280;7255;53.596;9.960;2023-02-23T12:03:51;101038.19;;;8.92;nan
14343;BME280;7255;53.596;9.960;2023-02-23T12:06:26;101030.78;;;9.07;nan
14343;BME280;7255;53.596;9.960;2023-02-23T12:08:59;101036.97;;;8.94;nan
14343;BME280;7255;53.596;9.960;2023-02-23T12:11:30;101033.66;;;8.85;nan
14343;BME280;7255;53.596;9.960;2023-02-23T12:14:02;101029.53;;;8.83;nan
14343;BME280;7255;53.596;9.960;2023-02-23T12:16:34;101037.78;;;8.81;nan
14343;BME280;7255;53.596;9.960;2023-02-23T12:19:10;101036.50;;;8.64;nan
14343;BME280;7255;53.596;9.960;2023-02-23T12:21:44;101037.31;;;8.51;nan
14343;BME280;7255;53.596;9.960;2023-02-23T12:24:17;101035.66;;;8.43;nan
14343;BME280;7255;53.596;9.960;2023-02-23T12:26:48;101039.81;;;8.53;nan
14343;BME280;7255;53.596;9.960;2023-02-23T12:29:20;101043.53;;;8.65;nan
14343;BME280;7255;53.596;9.960;2023-02-23T12:31:51;101039.75;;;8.39;nan
14343;BME280;7255;53.596;9.960;2023-02-23T12:34:24;101038.16;;;8.72;nan
14343;BME280;7255;53.596;9.960;2023-02-23T12:36:56;101053.84;;;8.81;nan
14343;BME280;7255;53.596;9.960;2023-02-23T12:39:27;101041.06;;;8.63;nan
14343;BME280;7255;53.596;9.960;2023-02-23T12:42:01;101029.06;;;8.46;nan
14343;BME280;7255;53.596;9.960;2023-02-23T12:44:34;101030.25;;;8.37;nan
14343;BME280;7255;53.596;9.960;2023-02-23T12:47:11;101038.97;;;8.52;nan
14343;BME280;7255;53.596;9.960;2023-02-23T12:49:45;101042.31;;;8.61;nan
14343;BME280;7255;53.596;9.960;2023-02-23T12:52:17;101032.38;;;8.48;nan
14343;BME280;7255;53.596;9.960;2023-02-23T12:54:44;101031.53;;;8.47;nan
14343;BME280;7255;53.596;9.960;2023-02-23T12:57:17;101041.47;;;8.54;nan
14343;BME280;7255;53.596;9.960;2023-02-23T13:00:03;101026.13;;;8.34;nan
14343;BME280;7255;53.596;9.960;2023-02-23T13:02:46;101028.25;;;8.45;nan
14343;BME280;7255;53.596;9.960;2023-02-23T13:05:19;101030.31;;;8.43;nan
14343;BME280;7255;53.596;9.960;2023-02-23T13:07:58;101029.53;;;8.63;nan
14343;BME280;7255;53.596;9.960;2023-02-23T13:10:32;101024.56;;;8.46;nan
14343;BME280;7255;53.596;9.960;2023-02-23T13:13:21;101026.56;;;8.38;nan
14343;BME280;7255;53.596;9.960;2023-02-23T13:15:57;101024.13;;;8.43;nan
14343;BME280;7255;53.596;9.960;2023-02-23T13:18:28;101025.38;;;8.47;nan
14343;BME280;7255;53.596;9.960;2023-02-23T13:21:03;101006.00;;;8.45;nan
14343;BME280;7255;53.596;9.960;2023-02-23T13:23:35;101014.59;;;8.40;nan
14343;BME280;7255;53.596;9.960;2023-02-23T13:26:09;101013.00;;;8.46;nan
14343;BME280;7255;53.596;9.960;2023-02-23T13:28:45;101005.63;;;8.61;nan
14343;BME280;7255;53.596;9.960;2023-02-23T13:31:21;100986.25;;;8.79;nan
14343;BME280;7255;53.596;9.960;2023-02-23T13:33:48;101008.94;;;8.83;nan
14343;BME280;7255;53.596;9.960;2023-02-23T13:36:18;101001.91;;;8.62;nan
14343;BME280;7255;53.596;9.960;2023-02-23T13:38:55;101006.84;;;8.59;nan
14343;BME280;7255;53.596;9.960;2023-02-23T13:41:36;101003.53;;;8.57;nan
14343;BME280;7255;53.596;9.960;2023-02-23T13:44:09;100998.53;;;8.40;nan
14343;BME280;7255;53.596;9.960;2023-02-23T13:46:47;100992.78;;;8.30;nan
14343;BME280;7255;53.596;9.960;2023-02-23T13:49:25;100994.41;;;8.31;nan
14343;BME280;7255;53.596;9.960;2023-02-23T13:51:59;100985.78;;;8.36;nan
14343;BME280;7255;53.596;9.960;2023-02-23T13:54:31;100994.06;;;8.47;nan